Tropical Cyclones
[Index]
Main Index Home Page Stock Weather Photos Extreme Storms Discussion Storm News and Storm Chasing Reports Tropical Cyclones / Hurricanes / Typhoons Weather Data and Links Wild Fires / Bushfires Weather Observation Techniques Weather Picture Catalogue Tornado Pictures and Reports Stock Video Footage and DVDs for sale
Season 2003-2004 Tropical Cyclone IVY Track Map
Season 2003-2004 Summaries (Operational Data): [AU] [SIO] [SPAC] [SH]
<<- Previous TC | 2003-2004 Season | Next TC ->>

click for intensity scale information  Lat/long Grid: Show Hide

 Date Labels: Show Hide

Operational Tropical Cyclone Data : JTWC Advisories

Name: IVY
Number: 0413

21 Feb 2004 21:00 UTC to 29 Feb 2004 23:00 UTC

    date/time    lat    long     hPa   cat  kts
2004-02-21 21   16.5   173.5    1002         25          
2004-02-22 06   16.0   174.3    1002         25          
2004-02-22 18   15.3   173.0     999         30          
2004-02-23 00   15.2   173.0     999         30          
2004-02-23 03   15.0   172.5     995    1    35          
2004-02-23 06   15.0   172.0     995    1    35          
2004-02-23 12   14.9   170.7     987    1    45          
2004-02-23 18   13.8   170.3     975    2    60          
2004-02-24 00   13.5   169.7     975    2    60          
2004-02-24 06   13.4   168.9     975    2    60          
2004-02-24 12   14.3   168.9     970    3    65          
2004-02-24 18   14.6   168.6     970    3    65          
2004-02-25 00   14.7   168.0     960    3    75          
2004-02-25 06   15.7   167.7     955    3    80          
2004-02-25 12   16.1   167.6     955    3    80          
2004-02-25 18   16.3   167.9     940    4    90          
2004-02-26 00   17.2   168.1     935    4    90          
2004-02-26 06   17.7   168.3     940    4    90          
2004-02-26 12   18.5   168.6     940    4    90          
2004-02-26 18   19.3   168.8     940    4    90          
2004-02-27 00   20.2   169.1     940    4    90          
2004-02-27 06   21.5   169.4     940    4    90          
2004-02-27 12   22.7   169.9     940    4    90          
2004-02-27 18   24.5   170.7     945    3    85          
2004-02-28 00   26.2   171.5     950    3    80          
2004-02-28 06   28.6   172.7     955    3    80          
2004-02-28 11   31.0   174.0     972    3    65          
2004-02-28 17   34.0   176.0     972    2    60          
2004-02-28 23   37.0   178.0     976    2    60          
2004-02-29 05   40.0   179.0W    976    2    55          
2004-02-29 11   43.0   176.0W    976    2    55          
2004-02-29 17   47.0   174.0W    979    2    50          
2004-02-29 23   49.0   172.0W    979    2    50          
Winds are 10-min average.

Tropical cyclone tracks developed by Michael Bath using operational warnings and advisories and Google Maps.


[Australian Severe Weather index] [Copyright Notice] [Email Contacts] [Search This Site] [Privacy Policy]
Document: tropical_cyclone_ivy.htm Updated: 28 May 2013